createdAt,value
2016-05-09T00:00:42.340Z,63.42
2016-05-09T00:01:42.359Z,62.65
2016-05-09T00:02:42.394Z,63.67
2016-05-09T00:03:42.443Z,63.57
2016-05-09T00:04:55.165Z,63.29
2016-05-09T00:05:42.448Z,63.76
2016-05-09T00:07:08.154Z,63.76
2016-05-09T00:07:52.142Z,63.19
2016-05-09T00:08:52.113Z,63.76
2016-05-09T00:09:55.209Z,63.96
2016-05-09T00:11:04.884Z,64.15
2016-05-09T00:11:58.448Z,64.05
2016-05-09T00:13:17.892Z,64.15
2016-05-09T00:14:11.629Z,63.67
2016-05-09T00:14:52.082Z,63.57
2016-05-09T00:16:17.916Z,63.67
2016-05-09T00:17:03.119Z,63.39
2016-05-09T00:18:03.152Z,63.29
2016-05-09T00:19:03.217Z,63.48
2016-05-09T00:21:18.289Z,62.9
2016-05-09T00:22:18.275Z,63.29
2016-05-09T00:23:18.481Z,62.9
2016-05-09T00:24:18.327Z,63.03
2016-05-09T00:25:18.361Z,63.03
2016-05-09T00:26:21.410Z,63.29
2016-05-09T00:27:18.571Z,62.71
2016-05-09T00:28:31.307Z,63.03
2016-05-09T00:29:20.013Z,62.84
2016-05-09T00:30:18.610Z,63.03
2016-05-09T00:31:31.362Z,63.03
2016-05-09T00:32:20.068Z,62.52
2016-05-09T00:33:18.680Z,63
2016-05-09T00:34:31.432Z,62.46
2016-05-09T00:35:18.717Z,63.29
2016-05-09T00:36:18.751Z,62.9
2016-05-09T00:37:18.597Z,63.48
2016-05-09T00:38:18.787Z,63.48
2016-05-09T00:39:18.634Z,63.57
2016-05-09T00:40:38.012Z,63.29
2016-05-09T00:41:18.686Z,63.39
2016-05-09T00:42:18.861Z,63.29
2016-05-09T00:43:18.895Z,63.29
2016-05-09T00:44:31.695Z,63.76
2016-05-09T00:45:18.946Z,63.19
2016-05-09T00:46:18.997Z,63.96
2016-05-09T00:47:31.717Z,64.34
2016-05-09T00:48:19.002Z,63.96
2016-05-09T00:49:19.019Z,64.15
2016-05-09T00:50:20.461Z,64.43
2016-05-09T00:51:19.119Z,64.72
2016-05-09T00:52:18.934Z,64.53
2016-05-09T00:53:20.358Z,64.62
2016-05-09T00:54:19.127Z,64.15
2016-05-09T00:55:19.192Z,64.53
2016-05-09T00:56:19.179Z,64.82
2016-05-09T00:57:19.182Z,64.72
2016-05-09T00:58:19.200Z,64.82
2016-05-09T00:59:19.078Z,64.82
2016-05-09T01:00:19.237Z,64.53
2016-05-09T01:01:19.255Z,65.39
2016-05-09T01:02:19.133Z,64.82
2016-05-09T01:03:19.135Z,65.3
2016-05-09T01:04:38.529Z,64.72
2016-05-09T01:05:19.344Z,65.36
2016-05-09T01:06:19.471Z,64.98
2016-05-09T01:07:31.959Z,65.39
2016-05-09T01:08:19.414Z,65.01
2016-05-09T01:09:19.418Z,64.98
2016-05-09T01:10:19.468Z,65.2
2016-05-09T01:11:19.454Z,65.2
2016-05-09T01:12:32.222Z,65.2
2016-05-09T01:13:22.569Z,65.17
2016-05-09T01:14:19.727Z,65.48
2016-05-09T01:15:19.418Z,65.68
2016-05-09T01:16:19.562Z,65.55
2016-05-09T01:17:19.611Z,66.22
2016-05-09T01:18:19.458Z,65.55
2016-05-09T01:19:32.366Z,65.55
2016-05-09T01:20:19.666Z,65.74
2016-05-09T01:21:38.871Z,66.13
2016-05-09T01:22:19.687Z,65.93
2016-05-09T01:23:45.377Z,66.89
2016-05-09T01:24:42.067Z,66.6
2016-05-09T01:25:29.351Z,66.79
2016-05-09T01:26:54.885Z,66.79
2016-05-09T01:27:38.919Z,67.27
2016-05-09T01:28:38.953Z,67.18
2016-05-09T01:29:38.971Z,67.36
2016-05-09T01:30:38.974Z,67.65
2016-05-09T01:32:04.679Z,67.55
2016-05-09T01:32:39.026Z,68.13
2016-05-09T01:33:39.044Z,67.84
2016-05-09T01:34:38.907Z,67.84
2016-05-09T01:35:40.503Z,68
2016-05-09T01:36:39.115Z,67.94
2016-05-09T01:37:38.976Z,67.55
2016-05-09T01:38:39.199Z,67.84
2016-05-09T01:39:39.171Z,68.04
2016-05-09T01:40:39.235Z,68.61
2016-05-09T01:41:51.957Z,68.1
2016-05-09T01:42:51.975Z,68.41
2016-05-09T01:43:58.461Z,68.19
2016-05-09T01:45:04.949Z,68.76
2016-05-09T01:45:39.295Z,68.76
2016-05-09T01:47:54.254Z,69.05
2016-05-09T01:48:54.428Z,69.24
2016-05-09T01:49:57.337Z,69.05
2016-05-09T01:51:07.214Z,69.24
2016-05-09T01:51:54.484Z,69.62
2016-05-09T01:52:54.564Z,69.15
2016-05-09T01:53:54.536Z,69.24
2016-05-09T01:54:54.538Z,69.62
2016-05-09T01:55:54.572Z,69.91
2016-05-09T01:56:54.591Z,70.2
2016-05-09T01:57:54.609Z,69.82
2016-05-09T01:58:54.627Z,70.1
2016-05-09T02:00:16.976Z,70.1
2016-05-09T02:00:54.679Z,70.39
2016-05-09T02:01:54.682Z,70.2
2016-05-09T02:03:04.435Z,70.39
2016-05-09T02:04:04.469Z,70.54
2016-05-09T02:05:07.488Z,70.58
2016-05-09T02:06:07.537Z,71.06
2016-05-09T02:07:04.351Z,71.15
2016-05-09T02:08:04.620Z,71.34
2016-05-09T02:09:04.561Z,71.59
2016-05-09T02:10:23.801Z,72.17
2016-05-09T02:11:17.350Z,71.98
2016-05-09T02:12:35.899Z,71.98
2016-05-09T02:13:30.308Z,72.45
2016-05-09T02:14:04.933Z,72.36
2016-05-09T02:15:35.954Z,72.64
2016-05-09T02:16:20.082Z,72.83
2016-05-09T02:17:19.944Z,72.64
2016-05-09T02:18:19.947Z,72.74
2016-05-09T02:19:19.996Z,73.22
2016-05-09T02:20:20.014Z,72.83
2016-05-09T02:21:21.439Z,72.74
2016-05-09T02:22:20.051Z,72.93
2016-05-09T02:23:20.091Z,73.5
2016-05-09T02:24:20.094Z,73.41
2016-05-09T02:25:20.081Z,73.32
2016-05-09T02:26:20.116Z,73.41
2016-05-09T02:27:20.150Z,73.32
2016-05-09T02:28:20.168Z,73.41
2016-05-09T02:29:20.186Z,73.69
2016-05-09T02:30:32.923Z,73.6
2016-05-09T02:31:45.895Z,73.98
2016-05-09T02:32:45.960Z,73.98
2016-05-09T02:33:29.932Z,74.17
2016-05-09T02:34:55.465Z,74.37
2016-05-09T02:35:29.984Z,74.08
2016-05-09T02:36:29.986Z,74.17
2016-05-09T02:37:42.739Z,74.17
2016-05-09T02:38:30.039Z,74.27
2016-05-09T02:39:49.245Z,74.55
2016-05-09T02:40:31.341Z,74.65
2016-05-09T02:41:29.937Z,74.37
2016-05-09T02:42:30.128Z,74.74
2016-05-09T02:43:31.380Z,74.65
2016-05-09T02:44:30.352Z,75.03
2016-05-09T02:45:42.901Z,74.93
2016-05-09T02:46:30.185Z,75.03
2016-05-09T02:48:01.485Z,74.84
2016-05-09T02:48:30.425Z,74.9
2016-05-09T02:49:30.256Z,74.84
2016-05-09T02:50:30.258Z,75.13
2016-05-09T02:51:30.277Z,74.99
2016-05-09T02:52:30.326Z,75.09
2016-05-09T02:53:30.329Z,75.13
2016-05-09T02:54:30.331Z,74.71
2016-05-09T02:55:30.382Z,74.99
2016-05-09T02:56:30.384Z,74.61
2016-05-09T02:57:30.496Z,75.03
2016-05-09T02:58:30.248Z,75.03
2016-05-09T02:59:30.471Z,75.03
2016-05-09T03:00:31.879Z,75.09
2016-05-09T03:01:30.476Z,74.8
2016-05-09T03:02:30.853Z,74.8
2016-05-09T03:03:30.574Z,75.37
2016-05-09T03:04:30.639Z,75.37
2016-05-09T03:05:30.611Z,75.7
2016-05-09T03:06:49.832Z,75.57
2016-05-09T03:07:43.398Z,75.37
2016-05-09T03:08:56.384Z,75.51
2016-05-09T03:09:30.638Z,75.7
2016-05-09T03:10:30.875Z,75.47
2016-05-09T03:11:30.674Z,75.37
2016-05-09T03:12:50.005Z,75.85
2016-05-09T03:13:43.461Z,75.76
2016-05-09T03:17:11.672Z,75.95
2016-05-09T03:18:11.534Z,76.33
2016-05-09T03:19:11.568Z,76.14
2016-05-09T03:20:11.571Z,76.14
2016-05-09T03:21:14.623Z,75.85
2016-05-09T03:22:37.282Z,76.14
2016-05-09T03:23:11.641Z,75.95
2016-05-09T03:25:24.399Z,76.33
2016-05-09T03:26:11.727Z,76.23
2016-05-09T03:27:11.699Z,76.62
2016-05-09T03:28:11.843Z,76.33
2016-05-09T03:29:24.457Z,76.23
2016-05-09T03:30:30.960Z,76.23
2016-05-09T03:31:30.993Z,75.85
2016-05-09T03:32:11.853Z,76.52
2016-05-09T03:33:34.076Z,75.95
2016-05-09T03:34:43.127Z,75.95
2016-05-09T03:35:47.879Z,76.23
2016-05-09T03:36:57.523Z,75.85
2016-05-09T03:37:26.259Z,76.04
2016-05-09T03:39:26.296Z,76.04
2016-05-09T03:40:26.315Z,75.85
2016-05-09T03:41:26.317Z,75.76
2016-05-09T03:42:26.351Z,76.23
2016-05-09T03:43:45.588Z,75.57
2016-05-09T03:44:29.592Z,75.98
2016-05-09T03:45:29.750Z,75.47
2016-05-09T03:46:31.206Z,75.76
2016-05-09T03:47:42.536Z,75.47
2016-05-09T03:48:32.914Z,75.57
2016-05-09T03:49:52.995Z,75.47
2016-05-09T03:50:32.185Z,75.28
2016-05-09T03:52:01.813Z,75.57
2016-05-09T03:52:45.769Z,75.6
2016-05-09T03:53:45.802Z,75.79
2016-05-09T03:54:48.836Z,75.79
2016-05-09T03:55:45.902Z,75.6
2016-05-09T03:56:45.858Z,75.89
2016-05-09T03:57:58.610Z,75.57
2016-05-09T03:58:46.160Z,76.18
2016-05-09T03:59:45.896Z,75.79
2016-05-09T04:00:45.932Z,75.32
2016-05-09T04:01:45.965Z,75.32
2016-05-09T04:02:45.968Z,75.42
2016-05-09T04:03:45.985Z,75.51
2016-05-09T04:04:46.020Z,75.32
2016-05-09T04:05:58.756Z,75.32
2016-05-09T04:06:46.119Z,75.42
2016-05-09T04:08:05.262Z,75.09
2016-05-09T04:08:45.984Z,75.13
2016-05-09T04:10:11.783Z,75.47
2016-05-09T04:10:46.129Z,74.84
2016-05-09T04:13:27.060Z,74.84
2016-05-09T04:14:01.279Z,74.55
2016-05-09T04:16:12.330Z,74.65
2016-05-09T04:17:12.333Z,74.46
2016-05-09T04:18:12.352Z,74.65
2016-05-09T04:19:12.230Z,74.46
2016-05-09T04:20:12.404Z,74.55
2016-05-09T04:21:13.844Z,74.74
2016-05-09T04:22:12.471Z,73.88
2016-05-09T04:23:12.458Z,74.37
2016-05-09T04:24:12.508Z,74.17
2016-05-09T04:25:12.496Z,73.88
2016-05-09T04:26:31.563Z,73.79
2016-05-09T04:27:13.938Z,73.69
2016-05-09T04:28:43.850Z,73.79
2016-05-09T04:29:22.290Z,73.69
2016-05-09T04:30:53.215Z,73.6
2016-05-09T04:31:37.702Z,73.32
2016-05-09T04:32:37.829Z,73.12
2016-05-09T04:33:56.926Z,73.12
2016-05-09T04:34:37.804Z,73.6
2016-05-09T04:36:09.056Z,72.83
2016-05-09T04:36:47.418Z,72.87
2016-05-09T04:39:21.879Z,72.64
2016-05-09T04:40:02.692Z,72.58
2016-05-09T04:41:02.710Z,72.3
2016-05-09T04:42:02.744Z,72.39
2016-05-09T04:43:05.887Z,72.2
2016-05-09T04:44:28.440Z,71.92
2016-05-09T04:45:02.800Z,71.82
2016-05-09T04:46:02.803Z,72.49
2016-05-09T04:47:02.883Z,71.72
2016-05-09T04:48:34.138Z,72.2
2016-05-09T04:49:45.189Z,71.82
2016-05-09T04:50:19.518Z,71.53
2016-05-09T04:51:19.584Z,72.05
2016-05-09T04:52:35.321Z,72.2
2016-05-09T04:53:38.605Z,71.38
2016-05-09T04:54:38.622Z,71.25
2016-05-09T04:55:40.048Z,71.28
2016-05-09T04:56:57.707Z,71.67
2016-05-09T04:57:47.788Z,71.47
2016-05-09T04:59:03.555Z,71
2016-05-09T05:00:03.574Z,70.9
2016-05-09T05:01:04.857Z,70.42
2016-05-09T05:02:16.361Z,70.71
2016-05-09T05:03:16.363Z,70.33
2016-05-09T05:05:38.106Z,69.98
2016-05-09T05:07:53.408Z,68.35
2016-05-09T05:09:19.117Z,65.61
2016-05-09T05:10:03.085Z,61.28
2016-05-09T05:11:03.104Z,55.87
2016-05-09T05:12:34.421Z,50.1
2016-05-09T05:13:18.221Z,47.22
2016-05-09T05:14:37.489Z,44.76
2016-05-09T05:15:21.445Z,43.44
2016-05-09T05:16:21.525Z,41.92
2016-05-09T05:17:21.498Z,40.61
2016-05-09T05:18:21.516Z,39.64
2016-05-09T05:19:34.269Z,38.31
2016-05-09T05:20:22.989Z,37.38
2016-05-09T05:21:21.586Z,35.86
2016-05-09T05:22:21.619Z,35.37
2016-05-09T05:23:21.639Z,33.95
2016-05-09T05:24:21.658Z,33.86
2016-05-09T05:25:21.675Z,33.67
2016-05-09T05:26:21.693Z,32.15
2016-05-09T05:27:21.790Z,32.17
2016-05-09T05:28:21.761Z,31.86
2016-05-09T05:29:21.874Z,31.29
2016-05-09T05:30:21.658Z,30.05
2016-05-09T05:31:41.051Z,29.38
2016-05-09T05:32:21.865Z,29.1
2016-05-09T05:33:53.181Z,27.94
2016-05-09T05:34:23.402Z,28.05
2016-05-09T05:35:21.952Z,27.96
2016-05-09T05:36:21.986Z,27.39
2016-05-09T05:37:22.004Z,27.78
2016-05-09T05:38:22.038Z,28.72
2016-05-09T05:39:22.072Z,28.03
2016-05-09T05:40:25.121Z,27
2016-05-09T05:41:22.140Z,26.81
2016-05-09T05:42:22.159Z,27.1
2016-05-09T05:43:22.208Z,26.79
2016-05-09T05:44:22.836Z,26.12
2016-05-09T05:45:22.276Z,25.95
2016-05-09T05:46:22.279Z,24.69
2016-05-09T05:47:22.344Z,25.78
2016-05-09T05:48:22.362Z,25.27
2016-05-09T05:49:22.364Z,26.73
2016-05-09T05:50:22.398Z,26.71
2016-05-09T05:51:22.275Z,25.95
2016-05-09T05:52:22.466Z,26.71
2016-05-09T05:53:22.501Z,26.71
2016-05-09T05:54:22.519Z,27.59
2016-05-09T05:55:22.584Z,28.14
2016-05-09T05:56:22.602Z,29
2016-05-09T05:57:22.636Z,29.1
2016-05-09T05:58:22.654Z,29.68
2016-05-09T05:59:23.610Z,30.62
2016-05-09T06:00:22.765Z,30.32
2016-05-09T06:01:22.844Z,30.91
2016-05-09T06:02:24.468Z,29.84
2016-05-09T06:03:24.468Z,28.9
2016-05-09T06:04:23.077Z,29.11
2016-05-09T06:05:23.127Z,29.76
2016-05-09T06:06:23.239Z,28.9
2016-05-09T06:07:23.272Z,28.51
2016-05-09T06:08:29.572Z,27.84
2016-05-09T06:09:23.310Z,28.34
2016-05-09T06:10:23.349Z,29.11
2016-05-09T06:11:23.404Z,30.05
2016-05-09T06:12:23.429Z,29.85
2016-05-09T06:13:23.469Z,29.66
2016-05-09T06:14:23.654Z,29.95
2016-05-09T06:15:23.534Z,30.34
2016-05-09T06:16:23.569Z,29.94
2016-05-09T06:17:23.605Z,29.66
2016-05-09T06:18:23.641Z,28.32
2016-05-09T06:19:23.724Z,27.57
2016-05-09T06:20:23.695Z,26.5
2016-05-09T06:21:23.731Z,25.56
2016-05-09T06:22:23.765Z,25.86
2016-05-09T06:23:23.799Z,26.71
2016-05-09T06:24:23.662Z,25.95
2016-05-09T06:25:23.869Z,24.69
2016-05-09T06:26:23.934Z,23.55
2016-05-09T06:27:23.781Z,23.56
2016-05-09T06:28:25.392Z,23.57
2016-05-09T06:29:36.739Z,24.54
2016-05-09T06:30:23.898Z,25.19
2016-05-09T06:31:24.072Z,24.71
2016-05-09T06:32:24.246Z,24.99
2016-05-09T06:33:24.155Z,24.02
2016-05-09T06:34:24.221Z,24.72
2016-05-09T06:35:24.208Z,25.47
2016-05-09T06:36:24.227Z,24.6
2016-05-09T06:37:25.682Z,24.02
2016-05-09T06:38:43.560Z,22.5
2016-05-09T06:39:33.844Z,22.51
2016-05-09T06:40:27.612Z,21.17
2016-05-09T06:41:27.833Z,22.24
2016-05-09T06:42:27.665Z,22.71
2016-05-09T06:43:27.542Z,22.41
2016-05-09T06:44:40.327Z,22.9
2016-05-09T06:45:29.204Z,22.41
2016-05-09T06:46:27.832Z,22.44
2016-05-09T06:47:27.865Z,22.91
2016-05-09T06:48:27.884Z,23.86
2016-05-09T06:49:27.918Z,23.94
2016-05-09T06:50:27.951Z,22.69
2016-05-09T06:51:27.985Z,23.38
2016-05-09T06:52:28.019Z,22.41
2016-05-09T06:53:29.490Z,23.47
2016-05-09T06:54:28.087Z,22.89
2016-05-09T06:55:28.121Z,23.96
2016-05-09T06:56:28.171Z,24.72
2016-05-09T06:57:28.189Z,23.93
2016-05-09T06:58:28.223Z,24.72
2016-05-09T06:59:28.117Z,24.32
2016-05-09T07:00:28.291Z,23.84
2016-05-09T07:01:29.747Z,24.05
2016-05-09T07:02:28.452Z,22.69
2016-05-09T07:03:47.674Z,22.89
2016-05-09T07:04:28.489Z,23.66
2016-05-09T07:07:09.730Z,26.12
2016-05-09T07:07:43.778Z,26.04
2016-05-09T07:08:43.828Z,25.75
2016-05-09T07:09:56.580Z,24.88
2016-05-09T07:10:45.318Z,24.5
2016-05-09T07:12:09.586Z,25.86
2016-05-09T07:12:43.949Z,26.9
2016-05-09T07:13:44.280Z,26.32
2016-05-09T07:14:56.751Z,26.62
2016-05-09T07:16:03.269Z,26.11
2016-05-09T07:16:47.084Z,24.97
2016-05-09T07:18:06.321Z,25.38
2016-05-09T07:18:47.152Z,24.79
2016-05-09T07:20:18.451Z,23.44
2016-05-09T07:21:05.376Z,23.08
2016-05-09T07:22:05.395Z,22.51
2016-05-09T07:23:05.443Z,22.41
2016-05-09T07:24:05.306Z,22.22
2016-05-09T07:25:05.512Z,22.51
2016-05-09T07:26:05.562Z,21.83
2016-05-09T07:27:07.033Z,21.25
2016-05-09T07:28:05.614Z,21.95
2016-05-09T07:29:09.054Z,22.51
2016-05-09T07:30:05.682Z,22.5
2016-05-09T07:31:12.012Z,23.36
2016-05-09T07:32:05.733Z,24.3
2016-05-09T07:33:05.800Z,24.97
2016-05-09T07:34:05.848Z,24.29
2016-05-09T07:35:08.898Z,23.35
2016-05-09T07:36:05.901Z,23.45
2016-05-09T07:37:18.669Z,23.45
2016-05-09T07:38:05.797Z,23.83
2016-05-09T07:39:31.677Z,24.41
2016-05-09T07:40:15.630Z,25.26
2016-05-09T07:41:15.664Z,25.93
2016-05-09T07:42:15.714Z,25.92
2016-05-09T07:43:41.391Z,27.28
2016-05-09T07:44:26.579Z,27.07
2016-05-09T07:45:44.615Z,26.7
2016-05-09T07:46:28.693Z,25.64
2016-05-09T07:47:54.418Z,25.93
2016-05-09T07:48:39.842Z,24.97
2016-05-09T07:49:59.267Z,24.69
2016-05-09T07:50:41.519Z,25.15
2016-05-09T07:51:40.121Z,24.68
2016-05-09T07:52:40.155Z,23.91
2016-05-09T07:53:40.032Z,23.63
2016-05-09T07:54:40.232Z,25.18
2016-05-09T07:55:40.266Z,25.95
2016-05-09T07:56:40.316Z,26.42
2016-05-09T07:57:53.068Z,27.76
2016-05-09T07:59:00.962Z,28.22
2016-05-09T07:59:59.589Z,29.08
2016-05-09T08:02:11.798Z,31.49
2016-05-09T08:02:40.504Z,32.23
2016-05-09T08:03:40.568Z,32.81
2016-05-09T08:04:46.399Z,33.94
2016-05-09T08:05:45.715Z,34.6
2016-05-09T08:06:41.967Z,35.26
2016-05-09T08:07:41.095Z,36.69
2016-05-09T08:08:52.098Z,36.77
2016-05-09T08:09:51.070Z,37.62
2016-05-09T08:10:40.776Z,38.1
2016-05-09T08:11:53.137Z,38.39
2016-05-09T08:12:40.859Z,38.76
2016-05-09T08:14:56.083Z,38.46
2016-05-09T08:15:56.132Z,38.66
2016-05-09T08:16:56.151Z,39.04
2016-05-09T08:17:56.185Z,38.95
2016-05-09T08:19:15.265Z,39.04
2016-05-09T08:20:21.924Z,39.14
2016-05-09T08:20:56.287Z,38.85
2016-05-09T08:21:56.320Z,38.37
2016-05-09T08:24:06.061Z,38.08
2016-05-09T08:25:06.095Z,38.08
2016-05-09T08:26:07.566Z,38.56
2016-05-09T08:27:06.147Z,38.95
2016-05-09T08:28:06.164Z,37.79
2016-05-09T08:29:06.058Z,38.37
2016-05-09T08:30:06.233Z,38.37
2016-05-09T08:31:06.251Z,38.18
2016-05-09T08:32:06.441Z,37.7
2016-05-09T08:33:25.507Z,38.18
2016-05-09T08:34:06.337Z,38.56
2016-05-09T08:36:06.390Z,37.79
2016-05-09T08:37:06.408Z,37.79
2016-05-09T08:38:25.488Z,38.28
2016-05-09T08:39:09.475Z,38.46
2016-05-09T08:40:28.696Z,37.81
2016-05-09T08:41:12.466Z,37.41
2016-05-09T08:42:12.671Z,37.52
2016-05-09T08:43:12.690Z,37.81
2016-05-09T08:44:14.129Z,37.04
2016-05-09T08:45:25.476Z,37.98
2016-05-09T08:46:25.510Z,37.62
2016-05-09T08:47:35.031Z,37.81
2016-05-09T08:48:12.828Z,37.71
2016-05-09T08:49:12.846Z,37.62
2016-05-09T08:50:25.630Z,37.81
2016-05-09T08:51:12.898Z,37.81
2016-05-09T08:52:38.607Z,37.52
2016-05-09T08:53:12.951Z,37.52
2016-05-09T08:55:22.894Z,37.71
2016-05-09T08:57:38.464Z,36.94
2016-05-09T08:58:38.373Z,37.43
2016-05-09T08:59:38.485Z,37.13
2016-05-09T09:00:38.394Z,37.13
2016-05-09T09:01:38.444Z,36.96
2016-05-09T09:02:38.462Z,36.38
2016-05-09T09:03:38.496Z,36.46
2016-05-09T09:04:38.514Z,36.27
2016-05-09T09:05:38.532Z,36.77
2016-05-09T09:06:38.394Z,36.55
2016-05-09T09:07:40.006Z,36.38
2016-05-09T09:08:38.619Z,35.32
2016-05-09T09:09:38.637Z,35.5
2016-05-09T09:10:38.529Z,35.5
2016-05-09T09:11:38.689Z,35.52
2016-05-09T09:12:38.833Z,34.94
2016-05-09T09:13:38.757Z,34.74
2016-05-09T09:14:58.010Z,33.98
2016-05-09T09:15:40.216Z,34.56
2016-05-09T09:17:10.109Z,34.28
2016-05-09T09:17:54.721Z,34.47
2016-05-09T09:18:54.693Z,34.08
2016-05-09T09:19:54.742Z,34.08
2016-05-09T09:20:54.761Z,33.4
2016-05-09T09:22:13.981Z,32.75
2016-05-09T09:22:54.812Z,33.4
2016-05-09T09:24:20.503Z,32.94
2016-05-09T09:25:04.459Z,33.5
2016-05-09T09:26:04.492Z,32.07
2016-05-09T09:27:04.511Z,31.57
2016-05-09T09:28:04.389Z,32.24
2016-05-09T09:29:04.563Z,32.73
2016-05-09T09:30:04.597Z,32.44
2016-05-09T09:31:04.662Z,32.64
2016-05-09T09:32:04.494Z,32.44
2016-05-09T09:33:04.714Z,31.96
2016-05-09T09:34:04.717Z,31.98
2016-05-09T09:35:04.736Z,31.1
2016-05-09T09:36:04.754Z,31.01
2016-05-09T09:37:04.757Z,30.82
2016-05-09T09:38:04.807Z,30.99
2016-05-09T09:39:04.824Z,31.18
2016-05-09T09:40:06.265Z,30.99
2016-05-09T09:41:06.143Z,30.99
2016-05-09T09:42:04.910Z,30.22
2016-05-09T09:43:04.945Z,31.18
2016-05-09T09:44:05.290Z,31.38
2016-05-09T09:45:08.029Z,32.07
2016-05-09T09:46:05.015Z,31.2
2016-05-09T09:47:05.064Z,31.01
2016-05-09T09:48:17.802Z,30.91
2016-05-09T09:49:05.117Z,31.01
2016-05-09T09:50:05.135Z,31.3
2016-05-09T09:51:17.747Z,31.01
2016-05-09T09:52:05.187Z,31.2
2016-05-09T09:53:30.878Z,31.88
2016-05-09T09:54:05.068Z,31.88
2016-05-09T09:55:05.118Z,31.3
2016-05-09T09:56:05.292Z,31.3
2016-05-09T09:57:06.733Z,30.91
2016-05-09T09:58:21.985Z,30.63
2016-05-09T09:59:22.019Z,30.93
2016-05-09T10:00:22.021Z,30.54
2016-05-09T10:01:34.805Z,30.54
2016-05-09T10:02:22.106Z,30.93
2016-05-09T10:03:41.314Z,29.86
2016-05-09T10:04:34.877Z,30.54
2016-05-09T10:05:22.036Z,30.73
2016-05-09T10:06:49.993Z,31.41
2016-05-09T10:07:37.290Z,30.35
2016-05-09T10:09:02.999Z,29.86
2016-05-09T10:09:37.343Z,29.96
2016-05-09T10:10:37.376Z,30.25
2016-05-09T10:11:37.395Z,30.05
2016-05-09T10:12:37.429Z,30.15
2016-05-09T10:13:38.872Z,30.07
2016-05-09T10:14:56.702Z,30.15
2016-05-09T10:15:37.531Z,30.36
2016-05-09T10:16:37.596Z,30.05
2016-05-09T10:17:37.568Z,30.17
2016-05-09T10:18:39.026Z,30.27
2016-05-09T10:19:37.620Z,30.46
2016-05-09T10:20:56.734Z,30.55
2016-05-09T10:21:50.487Z,30.65
2016-05-09T10:22:37.706Z,31.12
2016-05-09T10:24:03.242Z,31.22
2016-05-09T10:24:37.742Z,31.12
2016-05-09T10:26:39.219Z,31.6
2016-05-09T10:27:37.844Z,31.99
2016-05-09T10:28:50.459Z,31.89
2016-05-09T10:29:37.897Z,31.43
2016-05-09T10:30:57.136Z,30.83
2016-05-09T10:31:37.964Z,31.6
2016-05-09T10:32:37.983Z,31.7
2016-05-09T10:33:38.000Z,30.83
2016-05-09T10:34:41.147Z,31.22
2016-05-09T10:35:41.009Z,30.17
2016-05-09T10:36:53.840Z,30.54
2016-05-09T10:37:41.233Z,30.07
2016-05-09T10:38:41.266Z,31.04
2016-05-09T10:39:44.363Z,30.36
2016-05-09T10:40:41.319Z,30.18
2016-05-09T10:41:54.072Z,30.17
2016-05-09T10:42:54.107Z,30.36
2016-05-09T10:43:41.390Z,30.55
2016-05-09T10:44:41.440Z,30.93
2016-05-09T10:45:42.864Z,31.51
2016-05-09T10:46:41.492Z,31.52
2016-05-09T10:47:54.088Z,30.94
2016-05-09T10:48:42.794Z,31.13
2016-05-09T10:50:07.234Z,31.43
2016-05-09T10:50:51.190Z,31.13
2016-05-09T10:52:10.520Z,31.13
2016-05-09T10:52:51.258Z,31.13
2016-05-09T10:54:22.557Z,31.52
2016-05-09T10:54:54.342Z,31.71
2016-05-09T10:55:51.188Z,31.33
2016-05-09T10:56:51.362Z,30.96
2016-05-09T10:57:51.397Z,30.96
2016-05-09T10:58:51.445Z,31.54
2016-05-09T11:00:10.667Z,31.54
2016-05-09T11:01:04.217Z,31.44
2016-05-09T11:03:10.738Z,30.86
2016-05-09T11:03:54.897Z,31.05
2016-05-09T11:04:54.915Z,31.83
2016-05-09T11:05:54.949Z,31.73
2016-05-09T11:07:14.186Z,31.15
2016-05-09T11:08:07.752Z,31.15
2016-05-09T11:09:20.769Z,30.08
2016-05-09T11:09:56.491Z,31.25
2016-05-09T11:10:55.071Z,31.54
2016-05-09T11:12:26.402Z,31.05
2016-05-09T11:13:04.750Z,31.05
2016-05-09T11:14:36.330Z,30.88
2016-05-09T11:15:20.333Z,30.29
2016-05-09T11:16:20.366Z,30.28
2016-05-09T11:17:20.384Z,30.88
2016-05-09T11:18:33.168Z,30.88
2016-05-09T11:19:33.031Z,30.2
2016-05-09T11:20:20.456Z,30.49
2016-05-09T11:21:46.195Z,29.91
2016-05-09T11:23:01.448Z,30.39
2016-05-09T11:24:01.467Z,31.46
2016-05-09T11:25:01.501Z,30.88
2016-05-09T11:26:04.534Z,31.18
2016-05-09T11:27:14.271Z,31.18
2016-05-09T11:28:14.165Z,31.18
2016-05-09T11:29:02.042Z,30.98
2016-05-09T11:30:27.310Z,30.98
2016-05-09T11:31:27.329Z,29.92
2016-05-09T11:32:32.972Z,29.05
2016-05-09T11:33:01.709Z,29.91
2016-05-09T11:34:01.743Z,29.92
2016-05-09T11:35:01.777Z,28.56
2016-05-09T11:36:11.436Z,28.18
2016-05-09T11:38:26.708Z,27.97
2016-05-09T11:39:26.741Z,28.17
2016-05-09T11:40:39.510Z,29.13
2016-05-09T11:41:39.544Z,28.75
2016-05-09T11:42:58.111Z,27.87
2016-05-09T11:43:26.846Z,28.45
2016-05-09T11:44:26.958Z,28.08
2016-05-09T11:45:28.194Z,27.7
2016-05-09T11:46:26.979Z,27.01
2016-05-09T11:47:46.157Z,28.28
2016-05-09T11:48:39.797Z,27.4
2016-05-09T11:49:27.018Z,27.31
2016-05-09T11:50:27.036Z,27.29
2016-05-09T11:51:27.070Z,27.29
2016-05-09T11:52:27.120Z,27.87
2016-05-09T11:53:27.138Z,27.21
2016-05-09T11:54:27.173Z,27.5
2016-05-09T11:55:27.018Z,27.5
2016-05-09T11:56:27.208Z,26.82
2016-05-09T11:57:28.648Z,27.68
2016-05-09T11:58:27.277Z,27
2016-05-09T11:59:30.373Z,27.39
2016-05-09T12:00:27.328Z,27.97
2016-05-09T12:01:33.628Z,27.2
2016-05-09T12:02:40.131Z,28.05
2016-05-09T12:03:40.150Z,28.26
2016-05-09T12:04:46.639Z,27.58
2016-05-09T12:05:27.467Z,27.6
2016-05-09T12:06:27.329Z,27.97
2016-05-09T12:07:40.269Z,27.31
2016-05-09T12:09:06.025Z,27.31
2016-05-09T12:09:27.572Z,27.2
2016-05-09T12:10:37.215Z,27.5
2016-05-09T12:11:37.264Z,27.31
2016-05-09T12:12:37.282Z,28.07
2016-05-09T12:13:50.038Z,28.47
2016-05-09T12:14:37.804Z,28.47
2016-05-09T12:16:52.702Z,27.6
2016-05-09T12:17:52.549Z,28.28
2016-05-09T12:19:05.536Z,28.76
2016-05-09T12:19:54.038Z,27.6
2016-05-09T12:21:18.495Z,27.6
2016-05-09T12:21:52.841Z,27.7
2016-05-09T12:24:05.628Z,27.79
2016-05-09T12:24:52.911Z,27.21
2016-05-09T12:26:18.633Z,25.66
2016-05-09T12:27:03.901Z,26.53
2016-05-09T12:28:03.920Z,25.85
2016-05-09T12:29:05.360Z,26.14
2016-05-09T12:30:03.972Z,26.72
2016-05-09T12:31:23.209Z,26.14
2016-05-09T12:32:19.759Z,25.85
2016-05-09T12:33:19.653Z,25.66
2016-05-09T12:34:32.576Z,26.04
2016-05-09T12:35:32.579Z,26.04
2016-05-09T12:36:19.863Z,25.66
2016-05-09T12:38:42.134Z,27.01
2016-05-09T12:39:42.152Z,26.43
2016-05-09T12:40:42.186Z,26.73
2016-05-09T12:41:54.942Z,26.15
2016-05-09T12:42:54.819Z,26.16
2016-05-09T12:44:08.181Z,24.9
2016-05-09T12:44:42.306Z,25.85
2016-05-09T12:45:42.341Z,26.05
2016-05-09T12:46:42.359Z,26.06
2016-05-09T12:47:42.377Z,26.63
2016-05-09T12:48:42.505Z,26.64
2016-05-09T12:49:42.429Z,27.11
2016-05-09T12:50:42.464Z,27.5
2016-05-09T12:51:42.341Z,27.51
2016-05-09T12:52:42.344Z,27.6
2016-05-09T12:53:55.301Z,27.91
2016-05-09T12:54:44.004Z,27.81
2016-05-09T12:55:42.618Z,27.4
2016-05-09T12:56:42.636Z,27.89
2016-05-09T12:57:42.763Z,28.76
2016-05-09T12:58:42.548Z,29.05
2016-05-09T12:59:42.612Z,27.98
2016-05-09T13:00:42.740Z,27.61
2016-05-09T13:01:42.774Z,27.89
2016-05-09T13:02:45.840Z,28.38
2016-05-09T13:03:44.233Z,27.79
2016-05-09T13:04:44.282Z,27.51
2016-05-09T13:05:42.894Z,27.98
2016-05-09T13:06:45.850Z,28
2016-05-09T13:07:42.931Z,27.03
2016-05-09T13:08:43.028Z,26.54
2016-05-09T13:09:42.999Z,26.06
2016-05-09T13:10:43.048Z,26.34
2016-05-09T13:11:43.082Z,25.95
2016-05-09T13:13:02.291Z,26.26
2016-05-09T13:14:02.341Z,26.34
2016-05-09T13:15:17.609Z,26.63
2016-05-09T13:16:17.643Z,25.95
2016-05-09T13:17:17.505Z,25.87
2016-05-09T13:18:30.429Z,25.77
2016-05-09T13:19:17.714Z,25.67
2016-05-09T13:20:43.419Z,25.19
2016-05-09T13:21:27.422Z,25.77
2016-05-09T13:22:53.115Z,25.58
2016-05-09T13:24:02.789Z,25.96
2016-05-09T13:24:56.355Z,25.96
2016-05-09T13:26:40.216Z,24.22
2016-05-09T13:27:40.438Z,25.19
2016-05-09T13:28:40.425Z,25.29
2016-05-09T13:29:40.303Z,25.77
2016-05-09T13:30:59.715Z,25.38
2016-05-09T13:31:53.264Z,24.8
2016-05-09T13:33:06.204Z,24.71
2016-05-09T13:34:11.956Z,24.8
2016-05-09T13:34:55.804Z,24.8
2016-05-09T13:36:12.618Z,24.8